Time,TemperatureF,DewpointF,PressureIn,WindDirection,WindDirectionDegrees,WindSpeedMPH,WindSpeedGustMPH,Humidity,HourlyPrecipIn,Conditions,Clouds,dailyrainin,SoftwareType,DateUTC
2013-08-12 00:01:00,61.5,61.0,30.03,East,92,0.0,0.0,98,0.00,,,0.23,weatherlink.com 1.10,2013-08-12 07:01:00,
2013-08-12 00:16:00,61.3,61.0,30.03,East,92,0.0,0.0,97,0.00,,,0.00,weatherlink.com 1.10,2013-08-12 07:16:00,
2013-08-12 00:31:00,61.4,61.0,30.03,East,92,0.0,0.0,98,0.00,,,0.00,weatherlink.com 1.10,2013-08-12 07:31:00,
2013-08-12 00:46:00,61.4,61.0,30.02,East,92,0.0,0.0,98,0.00,,,0.00,weatherlink.com 1.10,2013-08-12 07:46:00,
2013-08-12 01:01:00,61.4,61.0,30.02,East,92,0.0,0.0,98,0.00,,,0.00,weatherlink.com 1.10,2013-08-12 08:01:00,
2013-08-12 01:16:00,61.3,61.0,30.02,East,92,0.0,0.0,97,0.00,,,0.00,weatherlink.com 1.10,2013-08-12 08:16:00,
2013-08-12 01:31:00,61.3,61.0,30.02,East,92,0.0,0.0,97,0.00,,,0.00,weatherlink.com 1.10,2013-08-12 08:31:00,
2013-08-12 01:46:00,61.2,60.0,30.02,East,92,0.0,0.0,97,0.00,,,0.00,weatherlink.com 1.10,2013-08-12 08:46:00,
2013-08-12 02:01:00,61.2,60.0,30.02,East,92,0.0,0.0,97,0.00,,,0.00,weatherlink.com 1.10,2013-08-12 09:01:00,
2013-08-12 02:16:00,61.3,61.0,30.01,East,92,0.0,0.0,98,0.00,,,0.00,weatherlink.com 1.10,2013-08-12 09:16:00,
2013-08-12 02:31:00,61.2,61.0,30.01,East,92,0.0,1.0,98,0.00,,,0.00,weatherlink.com 1.10,2013-08-12 09:31:00,
2013-08-12 02:46:00,61.2,61.0,30.01,East,92,0.0,0.0,98,0.00,,,0.00,weatherlink.com 1.10,2013-08-12 09:46:00,
2013-08-12 03:01:00,61.2,61.0,30.01,East,92,0.0,0.0,98,0.00,,,0.00,weatherlink.com 1.10,2013-08-12 10:01:00,
2013-08-12 03:16:00,61.2,61.0,30.02,East,92,0.0,0.0,98,0.00,,,0.00,weatherlink.com 1.10,2013-08-12 10:16:00,
2013-08-12 03:31:00,60.6,60.0,30.02,East,92,0.0,0.0,97,0.00,,,0.00,weatherlink.com 1.10,2013-08-12 10:31:00,
2013-08-12 03:46:00,60.0,59.0,30.03,East,92,0.0,0.0,97,0.00,,,0.00,weatherlink.com 1.10,2013-08-12 10:46:00,
2013-08-12 04:01:00,59.8,59.0,30.04,East,92,0.0,0.0,97,0.00,,,0.00,weatherlink.com 1.10,2013-08-12 11:01:00,
2013-08-12 04:16:00,59.4,59.0,30.04,East,92,0.0,0.0,97,0.00,,,0.00,weatherlink.com 1.10,2013-08-12 11:16:00,
2013-08-12 04:31:00,58.9,58.0,30.04,East,92,0.0,0.0,97,0.00,,,0.00,weatherlink.com 1.10,2013-08-12 11:31:00,
2013-08-12 04:46:00,58.5,58.0,30.04,East,92,0.0,0.0,97,0.00,,,0.00,weatherlink.com 1.10,2013-08-12 11:46:00,
2013-08-12 05:01:00,58.3,58.0,30.04,East,92,0.0,0.0,97,0.00,,,0.00,weatherlink.com 1.10,2013-08-12 12:01:00,
2013-08-12 05:16:00,58.0,57.0,30.04,East,92,0.0,0.0,97,0.00,,,0.00,weatherlink.com 1.10,2013-08-12 12:16:00,
2013-08-12 05:31:00,58.0,57.0,30.04,East,92,0.0,0.0,97,0.00,,,0.00,weatherlink.com 1.10,2013-08-12 12:31:00,
2013-08-12 05:46:00,58.0,58.0,30.04,East,92,0.0,0.0,98,0.00,,,0.00,weatherlink.com 1.10,2013-08-12 12:46:00,
2013-08-12 06:01:00,57.9,57.0,30.05,East,92,0.0,0.0,98,0.00,,,0.00,weatherlink.com 1.10,2013-08-12 13:01:00,
2013-08-12 06:16:00,57.9,57.0,30.05,East,92,0.0,0.0,98,0.00,,,0.00,weatherlink.com 1.10,2013-08-12 13:16:00,
2013-08-12 06:31:00,57.8,57.0,30.05,East,92,0.0,0.0,98,0.00,,,0.00,weatherlink.com 1.10,2013-08-12 13:31:00,
2013-08-12 06:46:00,57.9,57.0,30.05,East,92,0.0,0.0,98,0.00,,,0.00,weatherlink.com 1.10,2013-08-12 13:46:00,
2013-08-12 07:02:00,58.0,58.0,30.06,East,92,0.0,0.0,98,0.00,,,0.00,weatherlink.com 1.10,2013-08-12 14:02:00,
2013-08-12 07:17:00,58.2,58.0,30.06,East,92,0.0,0.0,98,0.00,,,0.00,weatherlink.com 1.10,2013-08-12 14:17:00,
2013-08-12 07:32:00,58.3,58.0,30.07,East,92,0.0,0.0,98,0.00,,,0.00,weatherlink.com 1.10,2013-08-12 14:32:00,
2013-08-12 07:47:00,58.2,57.0,30.07,East,92,0.0,0.0,97,0.00,,,0.00,weatherlink.com 1.10,2013-08-12 14:47:00,
2013-08-12 08:02:00,58.2,57.0,30.08,South,172,0.0,0.0,97,0.00,,,0.00,weatherlink.com 1.10,2013-08-12 15:02:00,
2013-08-12 08:17:00,58.2,57.0,30.08,North,5,0.0,1.0,97,0.00,,,0.00,weatherlink.com 1.10,2013-08-12 15:17:00,
2013-08-12 08:32:00,58.4,58.0,30.08,North,5,0.0,0.0,97,0.00,,,0.00,weatherlink.com 1.10,2013-08-12 15:32:00,
2013-08-12 08:47:00,58.7,58.0,30.08,North,5,0.0,0.0,97,0.00,,,0.00,weatherlink.com 1.10,2013-08-12 15:47:00,
2013-08-12 09:02:00,59.3,58.0,30.08,North,5,0.0,0.0,95,0.00,,,0.00,weatherlink.com 1.10,2013-08-12 16:02:00,
2013-08-12 09:17:00,59.5,58.0,30.08,North,5,0.0,0.0,95,0.00,,,0.00,weatherlink.com 1.10,2013-08-12 16:17:00,
2013-08-12 09:32:00,60.4,59.0,30.08,North,5,0.0,0.0,95,0.00,,,0.00,weatherlink.com 1.10,2013-08-12 16:32:00,
2013-08-12 09:47:00,61.3,59.0,30.08,North,5,0.0,0.0,93,0.00,,,0.00,weatherlink.com 1.10,2013-08-12 16:47:00,
2013-08-12 10:02:00,62.0,60.0,30.08,North,10,0.0,0.0,93,0.00,,,0.00,weatherlink.com 1.10,2013-08-12 17:02:00,
2013-08-12 10:17:00,62.8,60.0,30.08,NNE,19,0.0,0.0,90,0.00,,,0.00,weatherlink.com 1.10,2013-08-12 17:17:00,
2013-08-12 10:32:00,63.4,60.0,30.08,NNE,19,0.0,0.0,88,0.00,,,0.00,weatherlink.com 1.10,2013-08-12 17:32:00,
2013-08-12 10:47:00,64.2,60.0,30.08,NE,47,0.0,1.0,86,0.00,,,0.00,weatherlink.com 1.10,2013-08-12 17:47:00,
2013-08-12 11:02:00,64.5,61.0,30.08,SE,135,0.0,1.0,87,0.00,,,0.00,weatherlink.com 1.10,2013-08-12 18:02:00,
2013-08-12 11:17:00,64.8,60.0,30.08,ENE,69,0.0,0.0,85,0.00,,,0.00,weatherlink.com 1.10,2013-08-12 18:17:00,
2013-08-12 11:32:00,66.5,60.0,30.07,WNW,296,0.0,1.0,80,0.00,,,0.00,weatherlink.com 1.10,2013-08-12 18:32:00,
2013-08-12 11:47:00,65.8,60.0,30.07,West,269,0.0,0.0,82,0.00,,,0.00,weatherlink.com 1.10,2013-08-12 18:47:00,
2013-08-12 12:02:00,65.7,60.0,30.06,West,277,0.0,1.0,83,0.00,,,0.00,weatherlink.com 1.10,2013-08-12 19:02:00,
2013-08-12 12:17:00,65.9,61.0,30.06,West,276,0.0,0.0,84,0.00,,,0.00,weatherlink.com 1.10,2013-08-12 19:17:00,
2013-08-12 12:32:00,67.6,61.0,30.05,SSE,166,0.0,1.0,80,0.00,,,0.00,weatherlink.com 1.10,2013-08-12 19:32:00,
2013-08-12 12:47:00,69.1,61.0,30.05,ESE,107,0.0,1.0,75,0.00,,,0.00,weatherlink.com 1.10,2013-08-12 19:47:00,
2013-08-12 13:02:00,70.3,61.0,30.04,ENE,74,0.0,1.0,72,0.00,,,0.00,weatherlink.com 1.10,2013-08-12 20:02:00,
2013-08-12 13:17:00,71.5,62.0,30.04,East,98,0.0,1.0,73,0.00,,,0.00,weatherlink.com 1.10,2013-08-12 20:17:00,
2013-08-12 13:32:00,72.5,61.0,30.04,East,98,0.0,1.0,68,0.00,,,0.00,weatherlink.com 1.10,2013-08-12 20:32:00,
2013-08-12 13:47:00,72.6,63.0,30.03,East,86,0.0,5.0,71,0.00,,,0.00,weatherlink.com 1.10,2013-08-12 20:47:00,
2013-08-12 14:02:00,73.0,63.0,30.03,East,94,0.0,5.0,71,0.00,,,0.00,weatherlink.com 1.10,2013-08-12 21:02:00,
2013-08-12 14:17:00,73.5,63.0,30.03,NE,44,0.0,5.0,69,0.00,,,0.00,weatherlink.com 1.10,2013-08-12 21:17:00,
2013-08-12 14:32:00,74.6,63.0,30.03,SE,135,0.0,3.0,67,0.00,,,0.00,weatherlink.com 1.10,2013-08-12 21:32:00,
2013-08-12 14:48:00,74.9,61.0,30.02,East,90,5.0,6.0,63,0.00,,,0.00,weatherlink.com 1.10,2013-08-12 21:48:00,
2013-08-12 15:03:00,74.8,62.0,30.02,NNE,26,0.0,3.0,65,0.00,,,0.00,weatherlink.com 1.10,2013-08-12 22:03:00,
2013-08-12 15:18:00,74.5,63.0,30.02,ESE,110,1.0,2.0,67,0.00,,,0.00,weatherlink.com 1.10,2013-08-12 22:18:00,
2013-08-12 15:33:00,74.1,63.0,30.01,East,96,0.0,1.0,69,0.00,,,0.00,weatherlink.com 1.10,2013-08-12 22:33:00,
2013-08-12 15:48:00,73.7,62.0,30.01,East,101,2.0,5.0,68,0.00,,,0.00,weatherlink.com 1.10,2013-08-12 22:48:00,
2013-08-12 16:03:00,73.9,64.0,30.01,ESE,104,1.0,3.0,70,0.00,,,0.00,weatherlink.com 1.10,2013-08-12 23:03:00,
2013-08-12 16:18:00,73.7,62.0,30.00,ESE,113,0.0,2.0,68,0.00,,,0.00,weatherlink.com 1.10,2013-08-12 23:18:00,
2013-08-12 16:33:00,73.3,63.0,30.00,ESE,113,0.0,3.0,70,0.00,,,0.00,weatherlink.com 1.10,2013-08-12 23:33:00,
2013-08-12 16:48:00,73.1,64.0,30.00,ENE,76,2.0,2.0,72,0.00,,,0.00,weatherlink.com 1.10,2013-08-12 23:48:00,
2013-08-12 17:03:00,73.0,63.0,30.00,SSE,164,0.0,3.0,71,0.00,,,0.00,weatherlink.com 1.10,2013-08-13 00:03:00,
2013-08-12 17:18:00,73.0,63.0,30.00,South,176,0.0,1.0,72,0.00,,,0.00,weatherlink.com 1.10,2013-08-13 00:18:00,
2013-08-12 17:33:00,73.6,64.0,29.99,SSW,200,0.0,3.0,72,0.00,,,0.00,weatherlink.com 1.10,2013-08-13 00:33:00,
2013-08-12 17:48:00,73.2,63.0,29.99,SSW,200,2.0,3.0,70,0.00,,,0.00,weatherlink.com 1.10,2013-08-13 00:48:00,
2013-08-12 18:03:00,72.8,63.0,29.99,SSW,213,0.0,2.0,72,0.00,,,0.00,weatherlink.com 1.10,2013-08-13 01:03:00,
2013-08-12 18:18:00,71.4,62.0,29.99,SSE,147,0.0,3.0,73,0.00,,,0.00,weatherlink.com 1.10,2013-08-13 01:18:00,
2013-08-12 18:33:00,69.6,62.0,29.99,SSE,147,0.0,2.0,77,0.00,,,0.00,weatherlink.com 1.10,2013-08-13 01:33:00,
2013-08-12 18:48:00,68.4,62.0,30.00,South,189,0.0,2.0,79,0.00,,,0.00,weatherlink.com 1.10,2013-08-13 01:48:00,
2013-08-12 19:03:00,67.5,61.0,30.00,South,190,0.0,1.0,80,0.00,,,0.00,weatherlink.com 1.10,2013-08-13 02:03:00,
2013-08-12 19:18:00,67.1,61.0,30.00,South,190,0.0,2.0,81,0.00,,,0.00,weatherlink.com 1.10,2013-08-13 02:18:00,
2013-08-12 19:33:00,66.6,61.0,30.00,SE,140,0.0,1.0,83,0.00,,,0.00,weatherlink.com 1.10,2013-08-13 02:33:00,
2013-08-12 19:48:00,66.1,61.0,30.01,SE,144,0.0,0.0,83,0.00,,,0.00,weatherlink.com 1.10,2013-08-13 02:48:00,
2013-08-12 20:03:00,65.6,61.0,30.01,SE,144,0.0,0.0,85,0.00,,,0.00,weatherlink.com 1.10,2013-08-13 03:03:00,
2013-08-12 20:18:00,65.0,60.0,30.02,SE,144,0.0,0.0,85,0.00,,,0.00,weatherlink.com 1.10,2013-08-13 03:18:00,
2013-08-12 20:33:00,64.4,60.0,30.02,SE,144,0.0,0.0,86,0.00,,,0.00,weatherlink.com 1.10,2013-08-13 03:33:00,
2013-08-12 20:48:00,63.9,60.0,30.03,SE,144,0.0,0.0,87,0.00,,,0.00,weatherlink.com 1.10,2013-08-13 03:48:00,
2013-08-12 21:03:00,63.2,60.0,30.04,SE,144,0.0,0.0,88,0.00,,,0.00,weatherlink.com 1.10,2013-08-13 04:03:00,
2013-08-12 21:18:00,62.5,59.0,30.04,SE,144,0.0,0.0,89,0.00,,,0.00,weatherlink.com 1.10,2013-08-13 04:18:00,
2013-08-12 21:33:00,62.1,59.0,30.05,SE,144,0.0,0.0,90,0.00,,,0.00,weatherlink.com 1.10,2013-08-13 04:33:00,
2013-08-12 21:48:00,62.0,59.0,30.05,SE,144,0.0,1.0,91,0.00,,,0.00,weatherlink.com 1.10,2013-08-13 04:48:00,
2013-08-12 22:03:00,61.9,60.0,30.05,SE,144,0.0,0.0,92,0.00,,,0.00,weatherlink.com 1.10,2013-08-13 05:03:00,
2013-08-12 22:18:00,61.9,60.0,30.05,SE,144,0.0,0.0,92,0.00,,,0.00,weatherlink.com 1.10,2013-08-13 05:18:00,
2013-08-12 22:33:00,61.9,60.0,30.05,SE,144,0.0,0.0,92,0.00,,,0.00,weatherlink.com 1.10,2013-08-13 05:33:00,
2013-08-12 22:48:00,62.0,60.0,30.06,SE,144,0.0,0.0,92,0.00,,,0.00,weatherlink.com 1.10,2013-08-13 05:48:00,
2013-08-12 23:03:00,62.0,60.0,30.05,SE,144,0.0,0.0,92,0.00,,,0.00,weatherlink.com 1.10,2013-08-13 06:03:00,
2013-08-12 23:18:00,62.1,60.0,30.06,SE,144,0.0,0.0,92,0.00,,,0.00,weatherlink.com 1.10,2013-08-13 06:18:00,
2013-08-12 23:33:00,62.0,60.0,30.06,SE,144,0.0,0.0,92,0.00,,,0.00,weatherlink.com 1.10,2013-08-13 06:33:00,
2013-08-12 23:48:00,61.9,59.0,30.07,SE,144,0.0,0.0,90,0.00,,,0.00,weatherlink.com 1.10,2013-08-13 06:48:00,